Time;durP1;ratioP1;P1;durP2;ratioP2;P2;SDS_P1;SDS_P2;PMS_P1;PMS_P2;Temp;Humidity;BMP_temperature;BMP_pressure;BME280_temperature;BME280_humidity;BME280_pressure;Samples;Min_cycle;Max_cycle;Signal;HPM_P1;HPM_P2
2023/08/10 00:00:16;;;;;;;9.73;5.10;;;17.30;99.90;;;;;;4973997;28;20072;-77
2023/08/10 00:02:45;;;;;;;10.13;4.60;;;17.30;99.90;;;;;;4973895;28;20035;-78
2023/08/10 00:05:11;;;;;;;10.32;5.18;;;17.30;99.90;;;;;;4974349;28;20122;-78
2023/08/10 00:07:37;;;;;;;11.75;4.82;;;17.20;99.90;;;;;;4973566;28;20368;-78
2023/08/10 00:10:05;;;;;;;9.20;5.00;;;17.20;99.90;;;;;;4973320;28;20440;-76
2023/08/10 00:12:31;;;;;;;10.63;5.25;;;17.20;99.90;;;;;;4988374;28;20097;-77
2023/08/10 00:14:57;;;;;;;7.60;4.70;;;17.10;99.90;;;;;;4973098;28;20030;-77
2023/08/10 00:17:23;;;;;;;9.60;5.10;;;17.10;99.90;;;;;;4973884;28;20121;-77
2023/08/10 00:19:49;;;;;;;10.57;5.30;;;17.20;99.90;;;;;;4972860;28;20050;-78
2023/08/10 00:22:15;;;;;;;8.80;5.00;;;17.10;99.90;;;;;;4972145;28;20026;-77
2023/08/10 00:24:41;;;;;;;7.00;4.63;;;17.10;99.90;;;;;;4974106;28;20081;-77
2023/08/10 00:27:06;;;;;;;8.48;5.07;;;17.10;99.90;;;;;;4972849;28;20210;-78
2023/08/10 00:29:33;;;;;;;7.85;4.47;;;17.10;99.90;;;;;;4973609;28;20031;-78
2023/08/10 00:31:59;;;;;;;12.80;4.93;;;17.10;99.90;;;;;;4972993;28;20162;-78
2023/08/10 00:34:24;;;;;;;9.13;5.13;;;17.00;99.90;;;;;;4973135;28;20518;-77
2023/08/10 00:36:50;;;;;;;12.15;4.72;;;17.00;99.90;;;;;;4972814;28;20031;-77
2023/08/10 00:39:17;;;;;;;10.82;4.80;;;17.10;99.90;;;;;;4987928;28;20065;-77
2023/08/10 00:41:43;;;;;;;9.45;4.55;;;17.10;99.90;;;;;;4973320;28;20425;-77
2023/08/10 00:44:09;;;;;;;9.75;3.75;;;17.20;99.90;;;;;;4972413;28;20046;-77
2023/08/10 00:46:35;;;;;;;11.40;4.90;;;17.20;99.90;;;;;;4972929;28;20388;-77
2023/08/10 00:49:02;;;;;;;7.18;4.10;;;17.20;99.90;;;;;;4972017;28;20034;-77
2023/08/10 00:51:28;;;;;;;10.13;4.78;;;17.10;99.90;;;;;;4971491;28;20031;-77
2023/08/10 00:53:54;;;;;;;9.15;4.85;;;17.20;99.90;;;;;;4987042;28;20130;-78
2023/08/10 00:56:20;;;;;;;9.77;4.65;;;17.20;99.90;;;;;;4972744;28;20105;-77
2023/08/10 00:58:46;;;;;;;9.50;4.00;;;17.20;99.90;;;;;;4971454;28;20507;-77
2023/08/10 01:01:12;;;;;;;9.00;4.45;;;17.10;99.90;;;;;;4987053;28;20124;-77
2023/08/10 01:03:38;;;;;;;13.57;4.50;;;17.10;99.90;;;;;;4971240;28;20062;-77
2023/08/10 01:06:28;;;;;;;10.52;4.70;;;17.10;99.90;;;;;;4972422;28;20060;-77
2023/08/10 01:09:12;;;;;;;14.63;4.30;;;17.10;99.90;;;;;;4971694;28;20034;-77
2023/08/10 01:11:41;;;;;;;7.72;4.10;;;17.10;99.90;;;;;;4972465;28;20456;-76
2023/08/10 01:14:28;;;;;;;8.48;4.20;;;17.10;99.90;;;;;;4971898;28;20034;-77
2023/08/10 01:16:57;;;;;;;6.75;4.25;;;17.10;99.90;;;;;;4972087;28;20085;-78
2023/08/10 01:19:41;;;;;;;8.65;3.90;;;17.00;99.90;;;;;;4972499;28;20018;-77
2023/08/10 01:22:35;;;;;;;6.93;4.13;;;17.00;99.90;;;;;;4971708;28;20023;-77
2023/08/10 01:25:06;;;;;;;9.10;4.28;;;17.00;99.90;;;;;;4987130;28;20031;-77
2023/08/10 01:27:33;;;;;;;7.32;4.63;;;17.00;99.90;;;;;;4972696;28;20027;-77
2023/08/10 01:30:00;;;;;;;10.10;4.60;;;17.00;99.90;;;;;;4970627;28;20030;-77
2023/08/10 01:32:30;;;;;;;5.90;3.92;;;16.90;99.90;;;;;;4972621;28;20097;-77
2023/08/10 01:34:57;;;;;;;6.97;4.07;;;16.80;99.90;;;;;;4971705;28;20062;-77
2023/08/10 01:37:23;;;;;;;9.27;4.03;;;16.90;99.90;;;;;;4971863;28;20046;-77
2023/08/10 01:39:50;;;;;;;9.80;3.92;;;16.90;99.90;;;;;;4972216;28;20027;-78
2023/08/10 01:42:16;;;;;;;6.65;3.92;;;16.90;99.90;;;;;;4972399;28;20026;-78
2023/08/10 01:44:42;;;;;;;7.95;4.00;;;16.90;99.90;;;;;;4972769;28;20481;-78
2023/08/10 01:47:28;;;;;;;8.45;4.28;;;16.90;99.90;;;;;;4954769;28;20113;-78
2023/08/10 01:50:02;;;;;;;7.68;4.45;;;16.80;99.90;;;;;;4975091;28;20030;-78
2023/08/10 01:52:33;;;;;;;9.65;4.35;;;16.80;99.90;;;;;;4992051;28;20027;-77
2023/08/10 01:54:59;;;;;;;6.75;4.22;;;16.80;99.90;;;;;;4991149;28;20121;-77
2023/08/10 01:57:28;;;;;;;8.55;4.05;;;16.80;99.90;;;;;;4991408;28;20027;-77
2023/08/10 01:59:54;;;;;;;8.40;4.20;;;16.70;99.90;;;;;;4991081;28;20062;-78
2023/08/10 02:02:20;;;;;;;8.55;4.45;;;16.70;99.90;;;;;;4991225;28;20053;-77
2023/08/10 02:04:46;;;;;;;8.75;4.10;;;16.70;99.90;;;;;;4991582;28;20122;-77
2023/08/10 02:07:11;;;;;;;8.95;4.13;;;16.70;99.90;;;;;;4990239;28;20119;-77
2023/08/10 02:09:38;;;;;;;12.13;3.63;;;16.70;99.90;;;;;;4991522;28;20361;-77
2023/08/10 02:12:04;;;;;;;6.65;3.95;;;16.60;99.90;;;;;;4989652;28;20034;-77
2023/08/10 02:14:30;;;;;;;6.53;3.80;;;16.50;99.90;;;;;;4991333;28;20038;-77
2023/08/10 02:16:56;;;;;;;4.70;3.45;;;16.50;99.90;;;;;;4990475;28;20030;-79
2023/08/10 02:19:22;;;;;;;7.57;3.90;;;16.50;99.90;;;;;;4991156;28;20027;-77
2023/08/10 02:21:49;;;;;;;9.20;4.03;;;16.50;99.90;;;;;;4991138;28;20018;-77
2023/08/10 02:24:15;;;;;;;8.15;3.50;;;16.50;99.90;;;;;;4990837;28;20109;-77
2023/08/10 02:26:41;;;;;;;6.55;3.80;;;16.40;99.90;;;;;;4991051;28;20443;-77
2023/08/10 02:29:06;;;;;;;7.72;3.85;;;16.30;99.90;;;;;;4990323;28;20400;-77
2023/08/10 02:31:32;;;;;;;6.68;3.58;;;16.40;99.90;;;;;;4991003;28;20045;-77
2023/08/10 02:33:58;;;;;;;4.32;3.22;;;16.40;99.90;;;;;;4990331;28;20045;-77
2023/08/10 02:36:23;;;;;;;4.50;3.40;;;16.40;99.90;;;;;;4990423;28;20038;-77
2023/08/10 02:38:49;;;;;;;8.80;4.00;;;16.40;99.90;;;;;;4990822;28;20054;-77
2023/08/10 02:41:15;;;;;;;4.32;2.88;;;16.40;99.90;;;;;;4990275;28;20030;-77
2023/08/10 02:43:40;;;;;;;8.55;3.63;;;16.40;99.90;;;;;;4990523;28;20121;-77
2023/08/10 02:46:06;;;;;;;4.68;3.20;;;16.40;99.90;;;;;;4990283;28;20456;-77
2023/08/10 02:48:32;;;;;;;5.25;3.22;;;16.30;99.90;;;;;;4990782;28;20030;-77
2023/08/10 02:50:58;;;;;;;7.88;3.20;;;16.40;99.90;;;;;;4990095;28;20022;-78
2023/08/10 02:53:23;;;;;;;5.35;3.30;;;16.40;99.90;;;;;;4990703;28;20152;-77
2023/08/10 02:55:49;;;;;;;5.60;2.92;;;16.40;99.90;;;;;;4990191;28;20042;-77
2023/08/10 02:58:15;;;;;;;5.25;2.85;;;16.30;99.90;;;;;;4990084;28;20027;-77
2023/08/10 03:00:41;;;;;;;5.15;3.33;;;16.30;99.90;;;;;;4990074;28;20038;-77
2023/08/10 03:03:08;;;;;;;5.15;3.00;;;16.30;99.90;;;;;;4989797;28;20388;-77
2023/08/10 03:05:34;;;;;;;4.30;3.00;;;16.40;99.90;;;;;;4990657;28;20467;-77
2023/08/10 03:08:01;;;;;;;7.03;3.60;;;16.40;99.90;;;;;;4989644;28;20026;-78
2023/08/10 03:10:27;;;;;;;6.13;3.17;;;16.40;99.90;;;;;;4990646;28;20030;-76
2023/08/10 03:12:52;;;;;;;4.28;2.50;;;16.30;99.90;;;;;;4990548;28;20045;-77
2023/08/10 03:15:18;;;;;;;5.30;3.30;;;16.40;99.90;;;;;;4990088;28;20040;-77
2023/08/10 03:17:44;;;;;;;7.05;3.38;;;16.40;99.90;;;;;;4991833;28;20444;-77
2023/08/10 03:20:14;;;;;;;5.13;3.10;;;16.50;99.90;;;;;;4993217;28;20448;-77
2023/08/10 03:22:40;;;;;;;6.22;3.05;;;16.50;99.90;;;;;;4994334;28;20113;-77
2023/08/10 03:25:07;;;;;;;7.10;3.50;;;16.60;99.90;;;;;;4993633;28;20431;-78
2023/08/10 03:27:33;;;;;;;5.10;3.33;;;16.60;99.90;;;;;;4994095;28;20224;-77
2023/08/10 03:29:59;;;;;;;6.82;2.90;;;16.60;99.90;;;;;;4992466;28;20181;-78
2023/08/10 03:32:25;;;;;;;4.55;2.97;;;16.50;99.90;;;;;;4994136;28;20141;-78
2023/08/10 03:34:52;;;;;;;7.93;3.00;;;16.40;99.90;;;;;;4993734;28;20419;-77
2023/08/10 03:37:18;;;;;;;4.30;2.67;;;16.50;99.90;;;;;;4993543;28;20053;-77
2023/08/10 03:39:43;;;;;;;3.88;2.22;;;16.50;99.90;;;;;;4994123;28;20345;-77
2023/08/10 03:42:09;;;;;;;5.20;2.53;;;16.50;99.90;;;;;;4992924;28;20026;-77
2023/08/10 03:44:35;;;;;;;5.95;2.70;;;16.50;99.90;;;;;;4993397;28;20026;-77
2023/08/10 03:47:00;;;;;;;2.10;1.73;;;16.50;99.90;;;;;;4993460;28;20026;-78
2023/08/10 03:49:26;;;;;;;4.40;1.73;;;16.50;99.90;;;;;;4993744;28;20033;-77
2023/08/10 03:51:52;;;;;;;2.15;1.50;;;16.50;99.90;;;;;;4993417;28;20083;-77
2023/08/10 03:54:18;;;;;;;1.75;1.40;;;16.60;99.90;;;;;;4992933;28;20022;-77
2023/08/10 03:56:44;;;;;;;1.52;1.10;;;16.70;99.90;;;;;;4993474;28;20061;-76
2023/08/10 03:59:10;;;;;;;1.50;1.40;;;16.70;99.90;;;;;;4991507;28;20058;-77
2023/08/10 04:01:36;;;;;;;1.92;1.17;;;16.70;99.90;;;;;;4993380;28;20041;-77
2023/08/10 04:04:02;;;;;;;1.48;0.85;;;16.80;99.90;;;;;;4992961;28;20022;-77
2023/08/10 04:06:28;;;;;;;1.00;0.70;;;16.80;99.90;;;;;;4993610;28;20030;-76
2023/08/10 04:08:54;;;;;;;1.23;0.90;;;16.80;99.90;;;;;;4993322;28;20033;-77
2023/08/10 04:11:20;;;;;;;1.73;1.40;;;16.90;99.90;;;;;;4992621;28;20018;-76
2023/08/10 04:13:46;;;;;;;1.20;1.10;;;16.90;99.90;;;;;;4993315;28;20087;-77
2023/08/10 04:16:12;;;;;;;1.35;1.10;;;16.90;99.90;;;;;;4992704;28;20125;-76
2023/08/10 04:18:38;;;;;;;2.80;1.25;;;16.90;99.90;;;;;;4993220;28;20103;-76
2023/08/10 04:21:04;;;;;;;1.35;1.17;;;17.00;99.90;;;;;;4992572;28;20035;-77
2023/08/10 04:23:30;;;;;;;1.30;1.10;;;17.00;99.90;;;;;;4993240;28;20109;-76
2023/08/10 04:25:56;;;;;;;1.73;1.40;;;16.90;99.90;;;;;;4993306;28;20522;-77
2023/08/10 04:28:25;;;;;;;2.42;1.60;;;16.90;99.90;;;;;;4992645;28;20114;-77
2023/08/10 04:30:50;;;;;;;1.42;1.27;;;16.90;99.90;;;;;;4992597;28;20105;-76
2023/08/10 04:33:16;;;;;;;1.67;1.38;;;16.90;99.90;;;;;;4992155;28;20502;-75
2023/08/10 04:35:42;;;;;;;1.73;1.00;;;16.90;99.90;;;;;;4992906;28;20042;-75
2023/08/10 04:38:10;;;;;;;2.08;1.10;;;16.90;99.90;;;;;;4992017;28;20125;-76
2023/08/10 04:40:35;;;;;;;3.22;1.50;;;16.90;99.90;;;;;;4992942;28;20034;-76
2023/08/10 04:43:01;;;;;;;2.97;1.50;;;16.90;99.90;;;;;;4992829;28;20049;-76
2023/08/10 04:45:27;;;;;;;1.30;1.15;;;16.90;99.90;;;;;;4992195;28;20035;-75
2023/08/10 04:47:53;;;;;;;1.30;1.20;;;16.90;99.90;;;;;;4992950;28;20527;-74
2023/08/10 04:50:18;;;;;;;1.98;1.00;;;16.90;99.90;;;;;;4992094;28;20026;-75
2023/08/10 04:52:44;;;;;;;1.35;0.75;;;16.90;99.90;;;;;;4992580;28;20447;-75
2023/08/10 04:55:11;;;;;;;0.70;0.70;;;16.90;99.90;;;;;;4991792;28;20353;-76
2023/08/10 04:57:40;;;;;;;1.63;0.60;;;16.90;99.90;;;;;;4992067;28;20030;-76
2023/08/10 05:00:12;;;;;;;1.13;0.60;;;17.00;99.90;;;;;;4991594;28;20030;-79
2023/08/10 05:02:39;;;;;;;0.90;0.80;;;17.00;99.90;;;;;;4992367;28;20118;-76
2023/08/10 05:05:06;;;;;;;1.75;1.10;;;17.10;99.90;;;;;;4992064;28;20306;-77
2023/08/10 05:07:32;;;;;;;1.30;1.20;;;17.20;99.90;;;;;;4992303;28;20026;-75
2023/08/10 05:10:00;;;;;;;1.05;0.93;;;17.20;99.90;;;;;;4992150;28;20029;-75
2023/08/10 05:12:25;;;;;;;3.35;1.42;;;17.20;99.90;;;;;;4991208;28;20026;-75
2023/08/10 05:14:51;;;;;;;3.20;1.10;;;17.20;99.90;;;;;;4991597;28;20050;-76
2023/08/10 05:17:17;;;;;;;1.13;0.90;;;17.20;99.90;;;;;;4991036;28;20128;-76
2023/08/10 05:19:42;;;;;;;1.80;1.55;;;17.20;99.90;;;;;;4992022;28;20026;-76
2023/08/10 05:22:09;;;;;;;3.22;1.35;;;17.30;99.90;;;;;;4991622;28;20093;-77
2023/08/10 05:24:35;;;;;;;1.90;1.50;;;17.30;99.90;;;;;;4991998;28;20061;-76
2023/08/10 05:27:01;;;;;;;3.45;1.70;;;17.30;99.90;;;;;;4992227;28;20029;-76
2023/08/10 05:29:26;;;;;;;1.90;1.58;;;17.30;99.90;;;;;;4991328;28;20022;-76
2023/08/10 05:31:52;;;;;;;2.42;1.40;;;17.40;99.90;;;;;;4992040;28;20051;-76
2023/08/10 05:34:18;;;;;;;2.53;1.40;;;17.40;99.90;;;;;;4991056;28;20038;-76
2023/08/10 05:36:43;;;;;;;3.45;1.60;;;17.40;99.90;;;;;;4991486;28;20420;-76
2023/08/10 05:39:09;;;;;;;2.58;1.75;;;17.40;99.90;;;;;;4991603;28;20081;-76
2023/08/10 05:41:35;;;;;;;2.50;1.90;;;17.40;99.90;;;;;;4991216;28;20022;-76
2023/08/10 05:44:01;;;;;;;2.33;1.48;;;17.50;99.90;;;;;;4991781;28;20026;-76
2023/08/10 05:46:26;;;;;;;4.47;1.70;;;17.50;99.90;;;;;;4991023;28;20104;-76
2023/08/10 05:48:52;;;;;;;2.45;1.50;;;17.50;99.90;;;;;;4991422;28;20352;-76
2023/08/10 05:51:18;;;;;;;1.58;1.48;;;17.50;99.90;;;;;;4991038;28;20050;-77
2023/08/10 05:53:44;;;;;;;3.20;1.60;;;17.60;99.90;;;;;;4991215;28;20030;-77
2023/08/10 05:56:10;;;;;;;2.70;1.60;;;17.70;99.90;;;;;;4991460;28;20030;-77
2023/08/10 05:58:36;;;;;;;3.50;1.70;;;17.60;99.90;;;;;;4991847;28;20101;-76
2023/08/10 06:01:03;;;;;;;1.75;1.35;;;17.70;99.90;;;;;;4991012;28;20022;-76
2023/08/10 06:03:29;;;;;;;2.78;2.03;;;17.70;99.90;;;;;;4990928;28;20025;-77
2023/08/10 06:05:55;;;;;;;3.47;1.67;;;17.70;99.90;;;;;;4992283;28;20038;-77
2023/08/10 06:08:20;;;;;;;2.22;1.63;;;17.70;99.90;;;;;;4990692;28;20407;-77
2023/08/10 06:10:49;;;;;;;3.47;2.22;;;17.70;99.90;;;;;;4991468;28;20030;-77
2023/08/10 06:13:17;;;;;;;4.03;1.90;;;17.70;99.90;;;;;;4990574;28;20065;-77
2023/08/10 06:15:46;;;;;;;3.78;1.92;;;17.80;99.90;;;;;;4991216;28;20113;-78
2023/08/10 06:18:13;;;;;;;1.48;1.30;;;17.70;99.90;;;;;;4991278;28;20118;-78
2023/08/10 06:20:39;;;;;;;3.47;2.00;;;17.80;99.90;;;;;;4991549;28;20109;-79
2023/08/10 06:23:06;;;;;;;2.30;1.52;;;17.80;99.90;;;;;;4991181;28;20432;-78
2023/08/10 06:25:33;;;;;;;2.28;1.75;;;17.80;99.90;;;;;;4991437;28;20035;-78
2023/08/10 06:27:59;;;;;;;2.08;1.38;;;17.90;99.90;;;;;;4991696;28;20105;-78
2023/08/10 06:30:25;;;;;;;3.05;1.90;;;17.90;99.90;;;;;;4990894;28;20063;-78
2023/08/10 06:32:51;;;;;;;2.35;1.63;;;17.90;99.90;;;;;;4989823;28;20037;-78
2023/08/10 06:35:19;;;;;;;1.85;1.40;;;18.00;99.90;;;;;;4990569;28;20030;-78
2023/08/10 06:37:44;;;;;;;3.33;1.90;;;18.00;99.90;;;;;;4990761;28;20065;-78
2023/08/10 06:40:15;;;;;;;3.08;1.77;;;18.00;99.90;;;;;;4990835;28;20027;-78
2023/08/10 06:42:41;;;;;;;2.63;2.20;;;18.10;99.90;;;;;;4990801;28;20113;-78
2023/08/10 06:45:08;;;;;;;4.93;2.00;;;18.10;99.90;;;;;;4990602;28;20452;-77
2023/08/10 06:47:37;;;;;;;2.45;1.90;;;18.10;99.90;;;;;;4990339;28;20088;-78
2023/08/10 06:50:05;;;;;;;3.00;1.90;;;18.20;99.90;;;;;;4990858;28;20022;-78
2023/08/10 06:52:31;;;;;;;2.38;2.15;;;18.40;99.90;;;;;;4991322;28;20657;-78
2023/08/10 06:54:57;;;;;;;1.75;1.65;;;18.60;99.90;;;;;;4994607;28;20034;-78
2023/08/10 06:57:23;;;;;;;4.72;2.83;;;18.90;99.90;;;;;;4993348;28;20049;-78
2023/08/10 06:59:48;;;;;;;3.60;2.13;;;19.20;99.90;;;;;;4994778;28;20031;-77
2023/08/10 07:02:16;;;;;;;2.22;2.03;;;19.40;99.90;;;;;;4994235;28;20432;-78
2023/08/10 07:04:43;;;;;;;5.35;2.53;;;19.60;99.90;;;;;;4994281;28;20105;-77
2023/08/10 07:07:10;;;;;;;3.85;2.33;;;19.90;99.90;;;;;;4994402;28;20046;-78
2023/08/10 07:09:36;;;;;;;4.72;2.50;;;20.00;99.90;;;;;;4993543;28;20034;-78
2023/08/10 07:12:03;;;;;;;3.67;2.30;;;20.00;99.90;;;;;;4994292;28;20324;-77
2023/08/10 07:14:29;;;;;;;5.35;2.65;;;20.00;99.90;;;;;;4993376;28;20022;-78
2023/08/10 07:16:55;;;;;;;4.68;2.33;;;19.90;99.90;;;;;;4993462;28;20116;-78
2023/08/10 07:19:21;;;;;;;4.88;2.85;;;19.80;99.90;;;;;;4993487;28;20094;-79
2023/08/10 07:21:46;;;;;;;6.70;3.00;;;19.70;99.90;;;;;;4993941;28;20042;-78
2023/08/10 07:24:12;;;;;;;3.25;2.95;;;19.60;99.90;;;;;;4976485;28;20026;-78
2023/08/10 07:26:38;;;;;;;4.72;3.17;;;19.60;99.90;;;;;;4993472;28;20041;-77
2023/08/10 07:29:04;;;;;;;5.63;3.50;;;19.50;99.90;;;;;;4993452;28;20383;-78
2023/08/10 07:31:31;;;;;;;5.32;3.53;;;19.40;99.90;;;;;;4993370;28;20506;-78
2023/08/10 07:34:00;;;;;;;7.13;3.55;;;19.30;99.90;;;;;;4993729;28;20458;-78
2023/08/10 07:36:26;;;;;;;5.25;3.70;;;19.20;99.90;;;;;;4993493;28;20108;-77
2023/08/10 07:38:55;;;;;;;5.38;3.85;;;19.10;99.90;;;;;;4993227;28;20455;-78
2023/08/10 07:41:22;;;;;;;6.18;4.55;;;19.00;99.90;;;;;;4993572;28;20026;-77
2023/08/10 07:43:48;;;;;;;5.90;4.32;;;18.90;99.90;;;;;;4992594;28;20026;-77
2023/08/10 07:46:13;;;;;;;5.57;4.28;;;18.90;99.90;;;;;;4993831;28;20038;-77
2023/08/10 07:48:39;;;;;;;5.60;4.93;;;18.80;99.90;;;;;;4992985;28;20334;-77
2023/08/10 07:51:06;;;;;;;9.55;5.10;;;18.80;99.90;;;;;;4993950;28;20037;-77
2023/08/10 07:53:33;;;;;;;7.20;5.43;;;18.80;99.90;;;;;;4992658;28;20027;-77
2023/08/10 07:55:59;;;;;;;7.53;4.82;;;18.80;99.90;;;;;;4993274;28;20038;-77
2023/08/10 07:58:25;;;;;;;6.85;4.90;;;18.80;99.90;;;;;;4992878;28;20045;-77
2023/08/10 08:00:51;;;;;;;7.20;4.93;;;18.80;99.90;;;;;;4993381;28;20460;-77
2023/08/10 08:03:17;;;;;;;6.53;5.40;;;18.80;99.90;;;;;;4992953;28;20041;-79
2023/08/10 08:05:43;;;;;;;6.25;5.43;;;18.80;99.90;;;;;;4992749;28;20132;-75
2023/08/10 08:08:09;;;;;;;7.35;5.40;;;18.70;99.90;;;;;;4993453;28;20038;-77
2023/08/10 08:10:36;;;;;;;6.97;5.25;;;18.70;99.90;;;;;;4992683;28;20034;-77
2023/08/10 08:13:03;;;;;;;10.55;5.90;;;18.70;99.90;;;;;;4992679;28;20413;-77
2023/08/10 08:15:29;;;;;;;6.85;5.38;;;18.70;99.90;;;;;;4992372;28;20425;-77
2023/08/10 08:18:34;;;;;;;7.03;5.95;;;18.80;99.90;;;;;;4992925;28;20026;-77
2023/08/10 08:21:00;;;;;;;9.60;6.07;;;18.80;99.90;;;;;;4992950;28;20162;-76
2023/08/10 08:23:26;;;;;;;11.65;6.60;;;18.90;99.90;;;;;;4992062;28;20093;-76
2023/08/10 08:25:52;;;;;;;8.32;5.70;;;18.80;99.90;;;;;;4993269;28;20035;-76
2023/08/10 08:28:17;;;;;;;10.95;6.90;;;18.90;99.90;;;;;;4992656;28;20034;-76
2023/08/10 08:30:43;;;;;;;10.98;7.43;;;18.90;99.90;;;;;;4992632;28;20129;-76
2023/08/10 08:33:09;;;;;;;10.95;7.03;;;18.90;99.90;;;;;;4992749;28;20034;-76
2023/08/10 08:35:35;;;;;;;9.95;6.43;;;18.90;99.90;;;;;;4992036;28;20407;-75
2023/08/10 08:38:01;;;;;;;6.18;5.38;;;19.00;99.90;;;;;;4992778;28;20057;-76
2023/08/10 08:40:27;;;;;;;7.88;5.93;;;19.10;99.90;;;;;;4991758;28;20035;-76
2023/08/10 08:42:54;;;;;;;7.65;5.80;;;19.10;99.90;;;;;;4992332;28;20046;-76
2023/08/10 08:45:20;;;;;;;6.82;5.88;;;19.10;99.90;;;;;;4992029;28;20035;-77
2023/08/10 08:47:46;;;;;;;7.88;5.95;;;19.10;99.90;;;;;;4992389;28;20106;-76
2023/08/10 08:50:14;;;;;;;8.07;5.80;;;19.20;99.90;;;;;;4991971;28;20065;-76
2023/08/10 08:52:42;;;;;;;7.90;5.10;;;19.20;99.90;;;;;;4991775;28;20184;-76
2023/08/10 08:55:10;;;;;;;5.95;4.85;;;19.20;99.90;;;;;;4992360;28;20030;-76
2023/08/10 08:57:36;;;;;;;7.22;4.72;;;19.30;99.90;;;;;;4991326;28;20445;-76
2023/08/10 09:00:02;;;;;;;6.53;4.93;;;19.40;99.90;;;;;;4991918;28;20105;-78
2023/08/10 09:02:28;;;;;;;8.07;4.38;;;19.40;99.90;;;;;;4991674;28;20030;-78
2023/08/10 09:04:59;;;;;;;7.05;4.50;;;19.50;99.90;;;;;;4992182;28;20388;-78
2023/08/10 09:07:28;;;;;;;6.22;4.30;;;19.60;99.90;;;;;;4992266;28;20169;-79
2023/08/10 09:09:54;;;;;;;5.32;3.67;;;19.60;99.90;;;;;;4992055;28;20468;-77
2023/08/10 09:12:34;;;;;;;5.32;3.97;;;19.70;99.90;;;;;;4990172;28;20035;-78
2023/08/10 09:15:03;;;;;;;4.72;3.33;;;19.80;99.90;;;;;;4991833;28;20125;-77
2023/08/10 09:17:30;;;;;;;2.17;1.90;;;19.90;99.90;;;;;;4991408;28;20026;-78
2023/08/10 09:19:56;;;;;;;4.43;2.30;;;20.10;99.90;;;;;;4991767;28;20480;-78
2023/08/10 09:22:34;;;;;;;2.50;1.90;;;20.30;99.90;;;;;;4991387;28;20037;-78
2023/08/10 09:25:01;;;;;;;4.07;1.92;;;20.40;99.90;;;;;;4991938;28;20026;-77
2023/08/10 09:27:27;;;;;;;5.65;2.03;;;20.50;99.90;;;;;;4991548;28;20117;-78
2023/08/10 09:30:05;;;;;;;1.95;1.67;;;20.60;99.90;;;;;;4991463;28;20045;-77
2023/08/10 09:32:31;;;;;;;2.40;2.20;;;20.60;99.90;;;;;;4991784;28;20029;-77
2023/08/10 09:34:57;;;;;;;2.50;2.17;;;20.60;99.90;;;;;;4992730;28;20033;-77
2023/08/10 09:37:25;;;;;;;3.25;2.10;;;20.50;99.90;;;;;;4990664;28;20397;-77
2023/08/10 09:40:00;;;;;;;2.92;2.13;;;20.50;99.90;;;;;;4972956;28;20455;-77
2023/08/10 09:42:30;;;;;;;2.78;2.47;;;20.40;99.90;;;;;;4970957;28;20034;-76
2023/08/10 09:44:58;;;;;;;4.53;2.50;;;20.40;99.90;;;;;;4973134;28;20359;-75
2023/08/10 09:47:24;;;;;;;5.72;2.50;;;20.50;99.90;;;;;;4972916;28;20045;-76
2023/08/10 09:49:58;;;;;;;3.33;2.42;;;20.30;99.90;;;;;;4973024;28;20038;-75
2023/08/10 09:52:25;;;;;;;3.50;2.35;;;20.30;99.90;;;;;;4973028;28;20099;-76
2023/08/10 09:54:53;;;;;;;4.95;2.53;;;20.40;99.90;;;;;;4971156;28;20023;-75
2023/08/10 09:57:19;;;;;;;4.47;2.50;;;20.50;99.90;;;;;;4972879;28;20094;-75
2023/08/10 09:59:46;;;;;;;5.40;2.63;;;20.40;99.90;;;;;;4971979;28;20181;-75
2023/08/10 10:02:13;;;;;;;4.15;2.40;;;20.30;99.90;;;;;;4972058;28;20039;-76
2023/08/10 10:04:40;;;;;;;2.90;2.60;;;20.30;99.90;;;;;;4972008;28;20027;-77
2023/08/10 10:07:07;;;;;;;3.67;2.33;;;20.20;99.90;;;;;;4969999;28;20150;-76
2023/08/10 10:09:38;;;;;;;4.25;2.78;;;20.20;99.90;;;;;;4971053;28;20461;-77
2023/08/10 10:12:10;;;;;;;3.55;2.80;;;20.20;99.90;;;;;;4971256;28;20051;-76
2023/08/10 10:14:45;;;;;;;2.72;2.35;;;20.40;99.90;;;;;;4970580;28;20107;-75
2023/08/10 10:17:13;;;;;;;3.78;1.95;;;20.50;99.90;;;;;;4971138;28;20031;-75
2023/08/10 10:19:40;;;;;;;3.10;1.73;;;20.70;99.90;;;;;;4970808;28;20030;-76
2023/08/10 10:22:06;;;;;;;1.90;1.80;;;20.70;99.90;;;;;;4971309;28;20055;-75
2023/08/10 10:24:34;;;;;;;4.40;1.90;;;20.80;99.90;;;;;;4970615;28;20030;-75
2023/08/10 10:27:05;;;;;;;5.35;2.00;;;20.70;99.90;;;;;;4971440;28;20046;-77
2023/08/10 10:29:45;;;;;;;2.58;1.70;;;20.70;99.90;;;;;;4974687;28;20042;-76
2023/08/10 10:32:13;;;;;;;2.88;1.75;;;20.70;99.90;;;;;;4974946;28;20035;-74
2023/08/10 10:34:40;;;;;;;2.45;1.52;;;20.80;99.90;;;;;;4974376;28;20890;-75
2023/08/10 10:37:18;;;;;;;2.88;1.58;;;21.00;99.90;;;;;;4974675;28;20074;-75
2023/08/10 10:39:53;;;;;;;3.10;1.60;;;21.30;99.90;;;;;;4975523;28;20026;-75
2023/08/10 10:42:20;;;;;;;2.28;1.38;;;21.50;99.90;;;;;;4976042;28;20049;-76
2023/08/10 10:44:58;;;;;;;2.17;1.38;;;21.70;99.90;;;;;;4975156;28;20118;-76
2023/08/10 10:47:38;;;;;;;1.63;1.25;;;21.90;99.90;;;;;;4975437;28;20033;-78
2023/08/10 10:50:24;;;;;;;4.10;1.08;;;22.10;99.90;;;;;;4976223;28;20077;-76
2023/08/10 10:53:06;;;;;;;1.92;0.98;;;22.30;99.90;;;;;;4975992;28;20023;-75
2023/08/10 10:55:35;;;;;;;;;;;22.40;99.90;;;;;;4975908;28;20082;-77
2023/08/10 10:58:02;;;;;;;2.42;0.90;;;22.50;99.90;;;;;;4976307;28;19945;-76
2023/08/10 11:00:28;;;;;;;1.70;1.00;;;22.60;99.90;;;;;;4975854;28;20041;-78
2023/08/10 11:02:54;;;;;;;2.88;0.95;;;22.70;99.90;;;;;;4976405;28;20027;-77
2023/08/10 11:05:20;;;;;;;1.95;1.25;;;22.70;99.90;;;;;;4976283;28;20034;-75
2023/08/10 11:07:50;;;;;;;1.20;1.00;;;22.70;99.90;;;;;;4976225;28;20083;-78
2023/08/10 11:10:18;;;;;;;0.90;0.90;;;22.70;99.90;;;;;;4976777;28;20102;-77
2023/08/10 11:12:48;;;;;;;0.98;0.70;;;22.80;99.90;;;;;;4975737;28;20031;-78
2023/08/10 11:15:15;;;;;;;1.10;0.95;;;22.90;99.90;;;;;;4977030;28;20030;-77
2023/08/10 11:17:42;;;;;;;1.27;1.00;;;23.00;99.90;;;;;;4975512;28;20074;-75
2023/08/10 11:20:14;;;;;;;1.02;0.73;;;23.00;99.90;;;;;;4974787;28;20027;-76
2023/08/10 11:22:44;;;;;;;1.55;0.90;;;22.90;99.90;;;;;;4975569;28;20030;-78
2023/08/10 11:25:15;;;;;;;2.70;1.50;;;23.00;99.90;;;;;;4975931;28;20035;-78
2023/08/10 11:27:47;;;;;;;4.05;0.88;;;23.00;99.90;;;;;;4974925;28;20448;-78
2023/08/10 11:30:15;;;;;;;7.07;1.37;;;23.10;99.90;;;;;;4974948;28;20043;-78
2023/08/10 11:32:43;;;;;;;2.63;1.40;;;23.10;99.90;;;;;;4973813;28;20413;-78
2023/08/10 11:35:09;;;;;;;2.35;1.30;;;23.00;99.90;;;;;;4974020;28;20039;-78
2023/08/10 11:37:38;;;;;;;2.03;1.50;;;23.10;99.90;;;;;;4972619;28;20451;-77
2023/08/10 11:40:15;;;;;;;3.20;1.42;;;23.20;99.90;;;;;;4974207;28;20038;-77
2023/08/10 11:42:44;;;;;;;3.13;2.03;;;23.20;99.90;;;;;;4974080;28;20428;-79
2023/08/10 11:45:11;;;;;;;3.83;1.70;;;23.20;99.90;;;;;;4974180;28;20039;-79
2023/08/10 11:47:45;;;;;;;2.65;1.77;;;23.30;99.90;;;;;;4973703;28;20026;-78
2023/08/10 11:50:13;;;;;;;4.65;1.80;;;23.20;99.90;;;;;;4974541;28;20050;-78
2023/08/10 11:52:40;;;;;;;4.20;2.00;;;23.20;99.90;;;;;;4973762;28;20023;-78
2023/08/10 11:55:10;;;;;;;3.83;2.20;;;23.20;99.90;;;;;;4974378;28;20031;-78
2023/08/10 11:57:40;;;;;;;5.13;2.50;;;23.10;99.90;;;;;;4973451;28;20027;-78
2023/08/10 12:00:23;;;;;;;6.43;2.47;;;22.90;99.90;;;;;;4974056;28;20065;-77
2023/08/10 12:03:18;;;;;;;;;;;22.70;99.90;;;;;;4972950;28;20075;-78
2023/08/10 12:05:47;;;;;;;3.25;2.15;;;22.50;99.90;;;;;;4964879;28;20343;-78
2023/08/10 12:08:16;;;;;;;3.08;2.05;;;22.40;99.90;;;;;;4974204;28;20027;-78
2023/08/10 12:10:59;;;;;;;6.35;2.47;;;22.40;99.90;;;;;;4973042;28;20041;-78
2023/08/10 12:13:25;;;;;;;2.95;2.22;;;22.40;99.90;;;;;;4973751;28;20508;-79
2023/08/10 12:15:52;;;;;;;3.03;2.30;;;22.40;99.90;;;;;;4973108;28;20110;-78
2023/08/10 12:18:20;;;;;;;8.90;3.00;;;22.50;99.90;;;;;;4973303;28;20526;-79
2023/08/10 12:20:47;;;;;;;6.35;2.45;;;22.60;99.90;;;;;;4972672;28;20027;-79
2023/08/10 12:23:14;;;;;;;3.40;2.22;;;22.70;99.90;;;;;;4972573;28;20086;-79
2023/08/10 12:25:41;;;;;;;5.85;2.47;;;22.90;99.90;;;;;;4973055;28;20035;-78
2023/08/10 12:28:07;;;;;;;4.43;2.78;;;22.90;99.90;;;;;;4972309;28;20033;-79
2023/08/10 12:30:34;;;;;;;4.22;2.55;;;23.00;99.90;;;;;;4973086;28;20066;-79
2023/08/10 12:33:00;;;;;;;8.30;2.67;;;22.90;99.90;;;;;;4973065;28;20438;-79
2023/08/10 12:35:26;;;;;;;4.15;2.60;;;22.90;99.90;;;;;;4973314;28;20136;-79
2023/08/10 12:37:52;;;;;;;5.97;2.70;;;22.90;99.90;;;;;;4972891;28;20483;-79
2023/08/10 12:40:18;;;;;;;5.70;2.63;;;23.00;99.90;;;;;;4973750;28;20081;-79
2023/08/10 12:42:45;;;;;;;4.57;2.60;;;23.10;99.90;;;;;;4973073;28;20029;-79
2023/08/10 12:45:13;;;;;;;5.45;2.60;;;23.10;99.90;;;;;;4973979;28;20082;-78
2023/08/10 12:47:40;;;;;;;6.03;3.05;;;23.20;99.90;;;;;;4972558;28;20431;-78